sensor_id;sensor_type;location;lat;lon;timestamp;temperature;humidity
6146;DHT22;3104;50.348;7.620;2022-08-18T00:01:58;21.70;99.90
6146;DHT22;3104;50.348;7.620;2022-08-18T00:04:25;21.70;99.90
6146;DHT22;3104;50.348;7.620;2022-08-18T00:06:51;21.70;99.90
6146;DHT22;3104;50.348;7.620;2022-08-18T00:09:17;21.60;99.90
6146;DHT22;3104;50.348;7.620;2022-08-18T00:11:43;21.50;99.90
6146;DHT22;3104;50.348;7.620;2022-08-18T00:14:14;21.50;99.90
6146;DHT22;3104;50.348;7.620;2022-08-18T00:16:40;21.60;99.90
6146;DHT22;3104;50.348;7.620;2022-08-18T00:19:06;21.50;99.90
6146;DHT22;3104;50.348;7.620;2022-08-18T00:21:32;21.50;99.90
6146;DHT22;3104;50.348;7.620;2022-08-18T00:23:58;21.50;99.90
6146;DHT22;3104;50.348;7.620;2022-08-18T00:26:24;21.40;99.90
6146;DHT22;3104;50.348;7.620;2022-08-18T00:28:49;21.30;99.90
6146;DHT22;3104;50.348;7.620;2022-08-18T00:31:15;21.30;99.90
6146;DHT22;3104;50.348;7.620;2022-08-18T00:33:41;21.20;99.90
6146;DHT22;3104;50.348;7.620;2022-08-18T00:36:08;21.10;99.90
6146;DHT22;3104;50.348;7.620;2022-08-18T00:38:34;21.10;99.90
6146;DHT22;3104;50.348;7.620;2022-08-18T00:41:00;21.20;99.90
6146;DHT22;3104;50.348;7.620;2022-08-18T00:43:40;21.10;99.90
6146;DHT22;3104;50.348;7.620;2022-08-18T00:46:08;21.10;99.90
6146;DHT22;3104;50.348;7.620;2022-08-18T00:48:36;21.00;99.90
6146;DHT22;3104;50.348;7.620;2022-08-18T00:51:07;20.90;99.90
6146;DHT22;3104;50.348;7.620;2022-08-18T00:53:43;20.80;99.90
6146;DHT22;3104;50.348;7.620;2022-08-18T00:56:36;20.80;99.90
6146;DHT22;3104;50.348;7.620;2022-08-18T01:01:55;20.80;99.90
6146;DHT22;3104;50.348;7.620;2022-08-18T01:04:47;20.80;99.90
6146;DHT22;3104;50.348;7.620;2022-08-18T01:07:38;20.70;99.90
6146;DHT22;3104;50.348;7.620;2022-08-18T01:10:20;20.70;99.90
6146;DHT22;3104;50.348;7.620;2022-08-18T01:12:50;20.70;99.90
6146;DHT22;3104;50.348;7.620;2022-08-18T01:15:17;20.60;99.90
6146;DHT22;3104;50.348;7.620;2022-08-18T01:17:44;20.60;99.90
6146;DHT22;3104;50.348;7.620;2022-08-18T01:20:33;20.50;99.90
6146;DHT22;3104;50.348;7.620;2022-08-18T01:23:20;20.50;99.90
6146;DHT22;3104;50.348;7.620;2022-08-18T01:25:47;20.50;99.90
6146;DHT22;3104;50.348;7.620;2022-08-18T01:28:28;20.40;99.90
6146;DHT22;3104;50.348;7.620;2022-08-18T01:30:56;20.40;99.90
6146;DHT22;3104;50.348;7.620;2022-08-18T01:33:27;20.30;99.90
6146;DHT22;3104;50.348;7.620;2022-08-18T01:35:57;20.30;99.90
6146;DHT22;3104;50.348;7.620;2022-08-18T01:38:24;20.30;99.90
6146;DHT22;3104;50.348;7.620;2022-08-18T01:40:51;20.30;99.90
6146;DHT22;3104;50.348;7.620;2022-08-18T01:43:17;20.30;99.90
6146;DHT22;3104;50.348;7.620;2022-08-18T01:45:42;20.30;99.90
6146;DHT22;3104;50.348;7.620;2022-08-18T01:48:09;20.30;99.90
6146;DHT22;3104;50.348;7.620;2022-08-18T01:50:35;20.30;99.90
6146;DHT22;3104;50.348;7.620;2022-08-18T01:53:02;20.30;99.90
6146;DHT22;3104;50.348;7.620;2022-08-18T01:55:31;20.20;99.90
6146;DHT22;3104;50.348;7.620;2022-08-18T01:57:57;20.10;99.90
6146;DHT22;3104;50.348;7.620;2022-08-18T02:00:22;20.20;99.90
6146;DHT22;3104;50.348;7.620;2022-08-18T02:02:50;20.30;99.90
6146;DHT22;3104;50.348;7.620;2022-08-18T02:05:19;20.20;99.90
6146;DHT22;3104;50.348;7.620;2022-08-18T02:07:47;20.10;99.90
6146;DHT22;3104;50.348;7.620;2022-08-18T02:10:13;20.10;99.90
6146;DHT22;3104;50.348;7.620;2022-08-18T02:12:39;20.00;99.90
6146;DHT22;3104;50.348;7.620;2022-08-18T02:15:06;20.00;99.90
6146;DHT22;3104;50.348;7.620;2022-08-18T02:17:40;20.00;99.90
6146;DHT22;3104;50.348;7.620;2022-08-18T02:20:08;19.90;99.90
6146;DHT22;3104;50.348;7.620;2022-08-18T02:22:35;19.80;99.90
6146;DHT22;3104;50.348;7.620;2022-08-18T02:25:00;19.70;99.90
6146;DHT22;3104;50.348;7.620;2022-08-18T02:27:27;19.70;99.90
6146;DHT22;3104;50.348;7.620;2022-08-18T02:29:53;19.70;99.90
6146;DHT22;3104;50.348;7.620;2022-08-18T02:32:18;19.80;99.90
6146;DHT22;3104;50.348;7.620;2022-08-18T02:34:44;19.70;99.90
6146;DHT22;3104;50.348;7.620;2022-08-18T02:37:10;19.70;99.90
6146;DHT22;3104;50.348;7.620;2022-08-18T02:39:36;19.80;99.90
6146;DHT22;3104;50.348;7.620;2022-08-18T02:42:04;19.70;99.90
6146;DHT22;3104;50.348;7.620;2022-08-18T02:44:30;19.70;99.90
6146;DHT22;3104;50.348;7.620;2022-08-18T02:46:56;19.70;99.90
6146;DHT22;3104;50.348;7.620;2022-08-18T02:49:22;19.70;99.90
6146;DHT22;3104;50.348;7.620;2022-08-18T02:51:49;19.70;99.90
6146;DHT22;3104;50.348;7.620;2022-08-18T02:54:16;19.70;99.90
6146;DHT22;3104;50.348;7.620;2022-08-18T02:56:42;19.70;99.90
6146;DHT22;3104;50.348;7.620;2022-08-18T02:59:20;19.50;99.90
6146;DHT22;3104;50.348;7.620;2022-08-18T03:01:50;19.50;99.90
6146;DHT22;3104;50.348;7.620;2022-08-18T03:04:21;19.50;99.90
6146;DHT22;3104;50.348;7.620;2022-08-18T03:06:47;19.40;99.90
6146;DHT22;3104;50.348;7.620;2022-08-18T03:09:15;19.50;99.90
6146;DHT22;3104;50.348;7.620;2022-08-18T03:11:41;19.50;99.90
6146;DHT22;3104;50.348;7.620;2022-08-18T03:14:07;19.50;99.90
6146;DHT22;3104;50.348;7.620;2022-08-18T03:16:33;19.50;99.90
6146;DHT22;3104;50.348;7.620;2022-08-18T03:19:02;19.50;99.90
6146;DHT22;3104;50.348;7.620;2022-08-18T03:21:30;19.50;99.90
6146;DHT22;3104;50.348;7.620;2022-08-18T03:23:57;19.40;99.90
6146;DHT22;3104;50.348;7.620;2022-08-18T03:26:23;19.50;99.90
6146;DHT22;3104;50.348;7.620;2022-08-18T03:28:51;19.70;99.90
6146;DHT22;3104;50.348;7.620;2022-08-18T03:31:19;19.70;99.90
6146;DHT22;3104;50.348;7.620;2022-08-18T03:33:46;19.50;99.90
6146;DHT22;3104;50.348;7.620;2022-08-18T03:36:14;19.50;99.90
6146;DHT22;3104;50.348;7.620;2022-08-18T03:38:41;19.40;99.90
6146;DHT22;3104;50.348;7.620;2022-08-18T03:41:08;19.40;99.90
6146;DHT22;3104;50.348;7.620;2022-08-18T03:43:34;19.30;99.90
6146;DHT22;3104;50.348;7.620;2022-08-18T03:46:02;19.30;99.90
6146;DHT22;3104;50.348;7.620;2022-08-18T03:48:28;19.30;99.90
6146;DHT22;3104;50.348;7.620;2022-08-18T03:50:54;19.30;99.90
6146;DHT22;3104;50.348;7.620;2022-08-18T03:53:20;19.30;99.90
6146;DHT22;3104;50.348;7.620;2022-08-18T03:55:45;19.30;99.90
6146;DHT22;3104;50.348;7.620;2022-08-18T03:58:11;19.30;99.90
6146;DHT22;3104;50.348;7.620;2022-08-18T04:00:39;19.30;99.90
6146;DHT22;3104;50.348;7.620;2022-08-18T04:03:05;19.30;99.90
6146;DHT22;3104;50.348;7.620;2022-08-18T04:05:32;19.20;99.90
6146;DHT22;3104;50.348;7.620;2022-08-18T04:08:03;19.30;99.90
6146;DHT22;3104;50.348;7.620;2022-08-18T04:10:30;19.30;99.90
6146;DHT22;3104;50.348;7.620;2022-08-18T04:12:56;19.30;99.90
6146;DHT22;3104;50.348;7.620;2022-08-18T04:15:21;19.30;99.90
6146;DHT22;3104;50.348;7.620;2022-08-18T04:17:47;19.30;99.90
6146;DHT22;3104;50.348;7.620;2022-08-18T04:20:13;19.40;99.90
6146;DHT22;3104;50.348;7.620;2022-08-18T04:22:39;19.40;99.90
6146;DHT22;3104;50.348;7.620;2022-08-18T04:25:06;19.30;99.90
6146;DHT22;3104;50.348;7.620;2022-08-18T04:27:34;19.30;99.90
6146;DHT22;3104;50.348;7.620;2022-08-18T04:30:00;19.30;99.90
6146;DHT22;3104;50.348;7.620;2022-08-18T04:32:26;19.30;99.90
6146;DHT22;3104;50.348;7.620;2022-08-18T04:34:54;19.30;99.90
6146;DHT22;3104;50.348;7.620;2022-08-18T04:37:20;19.30;99.90
6146;DHT22;3104;50.348;7.620;2022-08-18T04:39:46;19.30;99.90
6146;DHT22;3104;50.348;7.620;2022-08-18T04:42:13;19.30;99.90
6146;DHT22;3104;50.348;7.620;2022-08-18T04:44:39;19.30;99.90
6146;DHT22;3104;50.348;7.620;2022-08-18T04:47:05;19.30;99.90
6146;DHT22;3104;50.348;7.620;2022-08-18T04:49:33;19.30;99.90
6146;DHT22;3104;50.348;7.620;2022-08-18T04:51:59;19.30;99.90
6146;DHT22;3104;50.348;7.620;2022-08-18T04:54:44;19.20;99.90
6146;DHT22;3104;50.348;7.620;2022-08-18T04:57:18;19.30;99.90
6146;DHT22;3104;50.348;7.620;2022-08-18T04:59:45;19.30;99.90
6146;DHT22;3104;50.348;7.620;2022-08-18T05:02:11;19.30;99.90
6146;DHT22;3104;50.348;7.620;2022-08-18T05:04:39;19.30;99.90
6146;DHT22;3104;50.348;7.620;2022-08-18T05:07:08;19.30;99.90
6146;DHT22;3104;50.348;7.620;2022-08-18T05:09:35;19.30;99.90
6146;DHT22;3104;50.348;7.620;2022-08-18T05:12:03;19.30;99.90
6146;DHT22;3104;50.348;7.620;2022-08-18T05:14:29;19.30;99.90
6146;DHT22;3104;50.348;7.620;2022-08-18T05:17:02;19.30;99.90
6146;DHT22;3104;50.348;7.620;2022-08-18T05:19:28;19.30;99.90
6146;DHT22;3104;50.348;7.620;2022-08-18T05:21:56;19.30;99.90
6146;DHT22;3104;50.348;7.620;2022-08-18T05:24:22;19.20;99.90
6146;DHT22;3104;50.348;7.620;2022-08-18T05:26:53;19.20;99.90
6146;DHT22;3104;50.348;7.620;2022-08-18T05:29:19;19.20;99.90
6146;DHT22;3104;50.348;7.620;2022-08-18T05:31:52;19.20;99.90
6146;DHT22;3104;50.348;7.620;2022-08-18T05:34:19;19.20;99.90
6146;DHT22;3104;50.348;7.620;2022-08-18T05:39:24;19.10;99.90
6146;DHT22;3104;50.348;7.620;2022-08-18T05:41:53;19.10;99.90
6146;DHT22;3104;50.348;7.620;2022-08-18T05:44:24;19.00;99.90
6146;DHT22;3104;50.348;7.620;2022-08-18T05:47:11;19.10;99.90
6146;DHT22;3104;50.348;7.620;2022-08-18T05:49:37;19.10;99.90
6146;DHT22;3104;50.348;7.620;2022-08-18T05:52:14;19.00;99.90
6146;DHT22;3104;50.348;7.620;2022-08-18T05:54:59;19.00;99.90
6146;DHT22;3104;50.348;7.620;2022-08-18T05:57:49;19.10;99.90
6146;DHT22;3104;50.348;7.620;2022-08-18T06:00:18;19.10;99.90
6146;DHT22;3104;50.348;7.620;2022-08-18T06:03:14;19.20;99.90
6146;DHT22;3104;50.348;7.620;2022-08-18T06:05:51;19.20;99.90
6146;DHT22;3104;50.348;7.620;2022-08-18T06:08:20;19.10;99.90
6146;DHT22;3104;50.348;7.620;2022-08-18T06:10:49;19.10;99.90
6146;DHT22;3104;50.348;7.620;2022-08-18T06:13:16;19.10;99.90
6146;DHT22;3104;50.348;7.620;2022-08-18T06:19:03;19.10;99.90
6146;DHT22;3104;50.348;7.620;2022-08-18T06:38:14;19.20;99.90
6146;DHT22;3104;50.348;7.620;2022-08-18T06:41:15;19.30;99.90
6146;DHT22;3104;50.348;7.620;2022-08-18T06:49:07;19.40;99.90
6146;DHT22;3104;50.348;7.620;2022-08-18T06:51:34;19.20;99.90
6146;DHT22;3104;50.348;7.620;2022-08-18T06:56:57;19.40;99.90
6146;DHT22;3104;50.348;7.620;2022-08-18T06:59:27;19.40;99.90
6146;DHT22;3104;50.348;7.620;2022-08-18T07:04:43;19.30;99.90
6146;DHT22;3104;50.348;7.620;2022-08-18T07:07:18;19.20;99.90
6146;DHT22;3104;50.348;7.620;2022-08-18T07:09:45;19.40;99.90
6146;DHT22;3104;50.348;7.620;2022-08-18T07:12:19;19.50;99.90
6146;DHT22;3104;50.348;7.620;2022-08-18T07:14:52;19.60;99.90
6146;DHT22;3104;50.348;7.620;2022-08-18T07:17:25;19.60;99.90
6146;DHT22;3104;50.348;7.620;2022-08-18T07:20:06;19.70;99.90
6146;DHT22;3104;50.348;7.620;2022-08-18T07:22:55;19.70;99.90
6146;DHT22;3104;50.348;7.620;2022-08-18T07:25:26;19.90;99.90
6146;DHT22;3104;50.348;7.620;2022-08-18T07:27:52;20.00;99.90
6146;DHT22;3104;50.348;7.620;2022-08-18T07:30:25;20.10;99.90
6146;DHT22;3104;50.348;7.620;2022-08-18T07:33:15;20.10;99.90
6146;DHT22;3104;50.348;7.620;2022-08-18T07:36:02;20.00;99.90
6146;DHT22;3104;50.348;7.620;2022-08-18T07:38:40;19.90;99.90
6146;DHT22;3104;50.348;7.620;2022-08-18T07:41:15;19.90;99.90
6146;DHT22;3104;50.348;7.620;2022-08-18T07:43:56;19.90;99.90
6146;DHT22;3104;50.348;7.620;2022-08-18T07:47:02;19.80;99.90
6146;DHT22;3104;50.348;7.620;2022-08-18T07:49:34;19.70;99.90
6146;DHT22;3104;50.348;7.620;2022-08-18T07:52:07;19.80;99.90
6146;DHT22;3104;50.348;7.620;2022-08-18T08:02:58;20.00;99.90
6146;DHT22;3104;50.348;7.620;2022-08-18T08:21:52;20.10;99.90
6146;DHT22;3104;50.348;7.620;2022-08-18T08:24:41;20.20;99.90
6146;DHT22;3104;50.348;7.620;2022-08-18T08:30:05;20.00;99.90
6146;DHT22;3104;50.348;7.620;2022-08-18T08:32:40;20.10;99.90
6146;DHT22;3104;50.348;7.620;2022-08-18T08:35:15;20.20;99.90
6146;DHT22;3104;50.348;7.620;2022-08-18T08:37:51;20.20;99.90
6146;DHT22;3104;50.348;7.620;2022-08-18T08:42:57;20.50;99.90
6146;DHT22;3104;50.348;7.620;2022-08-18T08:45:36;20.50;99.90
6146;DHT22;3104;50.348;7.620;2022-08-18T08:48:26;20.60;99.90
6146;DHT22;3104;50.348;7.620;2022-08-18T08:51:09;20.60;99.90
6146;DHT22;3104;50.348;7.620;2022-08-18T08:53:46;20.70;99.90
6146;DHT22;3104;50.348;7.620;2022-08-18T08:56:16;20.70;99.90
6146;DHT22;3104;50.348;7.620;2022-08-18T08:58:49;20.80;99.90
6146;DHT22;3104;50.348;7.620;2022-08-18T09:12:53;20.50;99.90
6146;DHT22;3104;50.348;7.620;2022-08-18T09:15:31;20.70;99.90
6146;DHT22;3104;50.348;7.620;2022-08-18T09:23:17;21.30;99.90
6146;DHT22;3104;50.348;7.620;2022-08-18T09:25:52;21.30;99.90
6146;DHT22;3104;50.348;7.620;2022-08-18T09:36:32;21.20;99.90
6146;DHT22;3104;50.348;7.620;2022-08-18T09:41:53;21.20;99.90
6146;DHT22;3104;50.348;7.620;2022-08-18T09:47:55;21.30;99.90
6146;DHT22;3104;50.348;7.620;2022-08-18T10:10:54;21.10;99.90
6146;DHT22;3104;50.348;7.620;2022-08-18T10:16:29;21.20;99.90
6146;DHT22;3104;50.348;7.620;2022-08-18T10:24:22;21.30;99.90
6146;DHT22;3104;50.348;7.620;2022-08-18T10:34:41;21.70;99.90
6146;DHT22;3104;50.348;7.620;2022-08-18T10:37:20;21.70;99.90
6146;DHT22;3104;50.348;7.620;2022-08-18T10:39:50;21.70;99.90
6146;DHT22;3104;50.348;7.620;2022-08-18T10:42:24;21.80;99.90
6146;DHT22;3104;50.348;7.620;2022-08-18T10:44:59;21.60;99.90
6146;DHT22;3104;50.348;7.620;2022-08-18T10:47:29;21.80;99.90
6146;DHT22;3104;50.348;7.620;2022-08-18T10:49:56;21.90;99.90
6146;DHT22;3104;50.348;7.620;2022-08-18T10:55:30;21.60;99.90
6146;DHT22;3104;50.348;7.620;2022-08-18T11:06:02;21.60;99.90
6146;DHT22;3104;50.348;7.620;2022-08-18T11:08:28;21.70;99.90
6146;DHT22;3104;50.348;7.620;2022-08-18T11:10:54;21.70;99.90
6146;DHT22;3104;50.348;7.620;2022-08-18T11:16:15;21.90;99.90
6146;DHT22;3104;50.348;7.620;2022-08-18T11:18:54;21.90;99.90
6146;DHT22;3104;50.348;7.620;2022-08-18T11:21:23;21.90;99.90
6146;DHT22;3104;50.348;7.620;2022-08-18T11:26:44;22.00;99.90
6146;DHT22;3104;50.348;7.620;2022-08-18T11:32:02;22.20;99.90
6146;DHT22;3104;50.348;7.620;2022-08-18T11:37:44;22.10;99.90
6146;DHT22;3104;50.348;7.620;2022-08-18T11:42:58;21.90;99.90
6146;DHT22;3104;50.348;7.620;2022-08-18T11:45:31;21.80;99.90
6146;DHT22;3104;50.348;7.620;2022-08-18T11:50:48;21.90;99.90
6146;DHT22;3104;50.348;7.620;2022-08-18T11:56:14;21.80;99.90
6146;DHT22;3104;50.348;7.620;2022-08-18T12:06:39;21.90;99.90
6146;DHT22;3104;50.348;7.620;2022-08-18T12:09:39;22.20;99.90
6146;DHT22;3104;50.348;7.620;2022-08-18T12:12:25;22.70;99.90
6146;DHT22;3104;50.348;7.620;2022-08-18T12:14:55;22.70;99.90
6146;DHT22;3104;50.348;7.620;2022-08-18T12:17:21;22.50;99.90
6146;DHT22;3104;50.348;7.620;2022-08-18T12:19:47;23.00;99.90
6146;DHT22;3104;50.348;7.620;2022-08-18T12:22:17;23.30;99.90
6146;DHT22;3104;50.348;7.620;2022-08-18T12:24:43;23.60;99.90
6146;DHT22;3104;50.348;7.620;2022-08-18T12:27:12;23.80;99.90
6146;DHT22;3104;50.348;7.620;2022-08-18T12:29:39;23.50;99.90
6146;DHT22;3104;50.348;7.620;2022-08-18T12:32:05;23.50;99.90
6146;DHT22;3104;50.348;7.620;2022-08-18T12:34:32;23.60;99.90
6146;DHT22;3104;50.348;7.620;2022-08-18T12:36:59;23.70;99.90
6146;DHT22;3104;50.348;7.620;2022-08-18T12:39:26;23.60;99.90
6146;DHT22;3104;50.348;7.620;2022-08-18T12:41:53;24.00;99.90
6146;DHT22;3104;50.348;7.620;2022-08-18T12:44:18;23.70;99.90
6146;DHT22;3104;50.348;7.620;2022-08-18T12:46:44;24.30;99.90
6146;DHT22;3104;50.348;7.620;2022-08-18T12:49:14;24.70;99.90
6146;DHT22;3104;50.348;7.620;2022-08-18T12:51:41;24.90;99.90
6146;DHT22;3104;50.348;7.620;2022-08-18T12:54:06;24.90;99.90
6146;DHT22;3104;50.348;7.620;2022-08-18T12:56:32;24.80;99.90
6146;DHT22;3104;50.348;7.620;2022-08-18T12:59:00;24.70;99.90
6146;DHT22;3104;50.348;7.620;2022-08-18T13:01:27;24.60;99.90
6146;DHT22;3104;50.348;7.620;2022-08-18T13:03:54;24.20;99.90
6146;DHT22;3104;50.348;7.620;2022-08-18T13:06:21;23.60;99.90
6146;DHT22;3104;50.348;7.620;2022-08-18T13:08:50;23.30;99.90
6146;DHT22;3104;50.348;7.620;2022-08-18T13:11:17;23.70;99.90
6146;DHT22;3104;50.348;7.620;2022-08-18T13:13:44;24.20;99.90
6146;DHT22;3104;50.348;7.620;2022-08-18T13:16:10;24.50;99.90
6146;DHT22;3104;50.348;7.620;2022-08-18T13:18:38;24.70;99.90
6146;DHT22;3104;50.348;7.620;2022-08-18T13:21:11;24.90;99.90
6146;DHT22;3104;50.348;7.620;2022-08-18T13:23:38;24.90;99.90
6146;DHT22;3104;50.348;7.620;2022-08-18T13:26:06;25.10;99.90
6146;DHT22;3104;50.348;7.620;2022-08-18T13:28:34;24.70;99.90
6146;DHT22;3104;50.348;7.620;2022-08-18T13:31:00;25.00;99.90
6146;DHT22;3104;50.348;7.620;2022-08-18T13:33:27;24.90;99.90
6146;DHT22;3104;50.348;7.620;2022-08-18T13:35:53;24.90;99.90
6146;DHT22;3104;50.348;7.620;2022-08-18T13:38:19;25.20;99.90
6146;DHT22;3104;50.348;7.620;2022-08-18T13:40:48;24.90;99.90
6146;DHT22;3104;50.348;7.620;2022-08-18T13:43:16;24.70;99.90
6146;DHT22;3104;50.348;7.620;2022-08-18T13:45:42;24.50;99.90
6146;DHT22;3104;50.348;7.620;2022-08-18T13:48:09;24.70;99.90
6146;DHT22;3104;50.348;7.620;2022-08-18T13:50:35;24.90;99.90
6146;DHT22;3104;50.348;7.620;2022-08-18T13:53:05;24.90;99.90
6146;DHT22;3104;50.348;7.620;2022-08-18T13:55:31;24.90;99.90
6146;DHT22;3104;50.348;7.620;2022-08-18T13:57:56;25.00;99.90
6146;DHT22;3104;50.348;7.620;2022-08-18T14:00:23;25.30;99.90
6146;DHT22;3104;50.348;7.620;2022-08-18T14:02:50;25.30;99.90
6146;DHT22;3104;50.348;7.620;2022-08-18T14:05:21;25.50;99.90
6146;DHT22;3104;50.348;7.620;2022-08-18T14:07:47;25.30;99.90
6146;DHT22;3104;50.348;7.620;2022-08-18T14:10:14;25.50;99.90
6146;DHT22;3104;50.348;7.620;2022-08-18T14:12:41;25.40;99.90
6146;DHT22;3104;50.348;7.620;2022-08-18T14:15:09;25.50;99.90
6146;DHT22;3104;50.348;7.620;2022-08-18T14:17:36;25.40;99.90
6146;DHT22;3104;50.348;7.620;2022-08-18T14:20:04;25.30;99.90
6146;DHT22;3104;50.348;7.620;2022-08-18T14:22:54;25.30;99.90
6146;DHT22;3104;50.348;7.620;2022-08-18T14:25:38;25.60;99.90
6146;DHT22;3104;50.348;7.620;2022-08-18T14:28:23;25.60;99.90
6146;DHT22;3104;50.348;7.620;2022-08-18T14:30:48;25.90;99.90
6146;DHT22;3104;50.348;7.620;2022-08-18T14:33:20;25.80;99.90
6146;DHT22;3104;50.348;7.620;2022-08-18T14:35:46;26.10;99.90
6146;DHT22;3104;50.348;7.620;2022-08-18T14:38:12;26.00;99.90
6146;DHT22;3104;50.348;7.620;2022-08-18T14:40:41;25.90;99.90
6146;DHT22;3104;50.348;7.620;2022-08-18T14:43:08;26.20;99.90
6146;DHT22;3104;50.348;7.620;2022-08-18T14:45:33;26.00;99.90
6146;DHT22;3104;50.348;7.620;2022-08-18T14:48:00;26.50;99.90
6146;DHT22;3104;50.348;7.620;2022-08-18T14:50:26;26.30;99.90
6146;DHT22;3104;50.348;7.620;2022-08-18T14:52:52;27.10;99.90
6146;DHT22;3104;50.348;7.620;2022-08-18T14:55:18;26.70;99.90
6146;DHT22;3104;50.348;7.620;2022-08-18T14:57:44;26.40;99.90
6146;DHT22;3104;50.348;7.620;2022-08-18T15:00:13;26.30;99.90
6146;DHT22;3104;50.348;7.620;2022-08-18T15:02:46;26.20;99.90
6146;DHT22;3104;50.348;7.620;2022-08-18T15:05:13;26.00;99.90
6146;DHT22;3104;50.348;7.620;2022-08-18T15:07:39;25.90;99.90
6146;DHT22;3104;50.348;7.620;2022-08-18T15:10:07;25.80;99.90
6146;DHT22;3104;50.348;7.620;2022-08-18T15:12:34;25.40;99.90
6146;DHT22;3104;50.348;7.620;2022-08-18T15:15:01;25.30;99.90
6146;DHT22;3104;50.348;7.620;2022-08-18T15:17:27;25.30;99.90
6146;DHT22;3104;50.348;7.620;2022-08-18T15:19:53;25.20;99.90
6146;DHT22;3104;50.348;7.620;2022-08-18T15:22:19;25.40;99.90
6146;DHT22;3104;50.348;7.620;2022-08-18T15:25:05;25.50;99.90
6146;DHT22;3104;50.348;7.620;2022-08-18T15:27:51;25.50;99.90
6146;DHT22;3104;50.348;7.620;2022-08-18T15:30:17;25.20;99.90
6146;DHT22;3104;50.348;7.620;2022-08-18T15:32:43;25.20;99.90
6146;DHT22;3104;50.348;7.620;2022-08-18T15:35:11;25.10;99.90
6146;DHT22;3104;50.348;7.620;2022-08-18T15:37:39;24.90;99.90
6146;DHT22;3104;50.348;7.620;2022-08-18T15:40:15;25.00;99.90
6146;DHT22;3104;50.348;7.620;2022-08-18T15:42:51;24.80;99.90
6146;DHT22;3104;50.348;7.620;2022-08-18T15:45:23;24.90;99.90
6146;DHT22;3104;50.348;7.620;2022-08-18T15:47:53;25.20;99.90
6146;DHT22;3104;50.348;7.620;2022-08-18T15:50:19;25.20;99.90
6146;DHT22;3104;50.348;7.620;2022-08-18T15:52:50;25.30;99.90
6146;DHT22;3104;50.348;7.620;2022-08-18T15:55:18;25.30;99.90
6146;DHT22;3104;50.348;7.620;2022-08-18T15:57:44;25.40;99.90
6146;DHT22;3104;50.348;7.620;2022-08-18T16:00:11;25.50;99.90
6146;DHT22;3104;50.348;7.620;2022-08-18T16:02:40;25.60;99.90
6146;DHT22;3104;50.348;7.620;2022-08-18T16:05:07;25.40;99.90
6146;DHT22;3104;50.348;7.620;2022-08-18T16:07:33;25.10;99.90
6146;DHT22;3104;50.348;7.620;2022-08-18T16:10:01;25.20;99.90
6146;DHT22;3104;50.348;7.620;2022-08-18T16:12:27;25.30;99.90
6146;DHT22;3104;50.348;7.620;2022-08-18T16:14:52;25.10;99.90
6146;DHT22;3104;50.348;7.620;2022-08-18T16:17:18;25.30;99.90
6146;DHT22;3104;50.348;7.620;2022-08-18T16:19:47;25.50;99.90
6146;DHT22;3104;50.348;7.620;2022-08-18T16:22:13;25.50;99.90
6146;DHT22;3104;50.348;7.620;2022-08-18T16:24:38;25.60;99.90
6146;DHT22;3104;50.348;7.620;2022-08-18T16:27:04;25.50;99.90
6146;DHT22;3104;50.348;7.620;2022-08-18T16:29:31;25.70;99.90
6146;DHT22;3104;50.348;7.620;2022-08-18T16:31:57;25.70;99.90
6146;DHT22;3104;50.348;7.620;2022-08-18T16:34:23;25.80;99.90
6146;DHT22;3104;50.348;7.620;2022-08-18T16:36:52;25.80;99.90
6146;DHT22;3104;50.348;7.620;2022-08-18T16:39:21;25.60;99.90
6146;DHT22;3104;50.348;7.620;2022-08-18T16:41:46;25.10;99.90
6146;DHT22;3104;50.348;7.620;2022-08-18T16:44:12;24.90;99.90
6146;DHT22;3104;50.348;7.620;2022-08-18T16:46:40;24.70;99.90
6146;DHT22;3104;50.348;7.620;2022-08-18T16:49:05;24.70;99.90
6146;DHT22;3104;50.348;7.620;2022-08-18T16:51:33;24.70;99.90
6146;DHT22;3104;50.348;7.620;2022-08-18T16:53:59;24.60;99.90
6146;DHT22;3104;50.348;7.620;2022-08-18T16:56:28;24.70;99.90
6146;DHT22;3104;50.348;7.620;2022-08-18T16:58:54;24.70;99.90
6146;DHT22;3104;50.348;7.620;2022-08-18T17:01:39;24.80;99.90
6146;DHT22;3104;50.348;7.620;2022-08-18T17:04:26;24.60;99.90
6146;DHT22;3104;50.348;7.620;2022-08-18T17:06:54;24.70;99.90
6146;DHT22;3104;50.348;7.620;2022-08-18T17:09:20;24.60;99.90
6146;DHT22;3104;50.348;7.620;2022-08-18T17:11:47;24.70;99.90
6146;DHT22;3104;50.348;7.620;2022-08-18T17:14:13;24.70;99.90
6146;DHT22;3104;50.348;7.620;2022-08-18T17:16:40;24.30;99.90
6146;DHT22;3104;50.348;7.620;2022-08-18T17:19:06;24.10;99.90
6146;DHT22;3104;50.348;7.620;2022-08-18T17:21:34;24.20;99.90
6146;DHT22;3104;50.348;7.620;2022-08-18T17:24:01;24.30;99.90
6146;DHT22;3104;50.348;7.620;2022-08-18T17:26:31;24.20;99.90
6146;DHT22;3104;50.348;7.620;2022-08-18T17:29:04;24.20;99.90
6146;DHT22;3104;50.348;7.620;2022-08-18T17:31:30;24.20;99.90
6146;DHT22;3104;50.348;7.620;2022-08-18T17:34:04;24.00;99.90
6146;DHT22;3104;50.348;7.620;2022-08-18T17:36:44;24.10;99.90
6146;DHT22;3104;50.348;7.620;2022-08-18T17:39:12;24.00;99.90
6146;DHT22;3104;50.348;7.620;2022-08-18T17:41:40;24.00;99.90
6146;DHT22;3104;50.348;7.620;2022-08-18T17:44:24;23.90;99.90
6146;DHT22;3104;50.348;7.620;2022-08-18T17:46:53;24.10;99.90
6146;DHT22;3104;50.348;7.620;2022-08-18T17:49:30;24.00;99.90
6146;DHT22;3104;50.348;7.620;2022-08-18T17:52:16;23.90;99.90
6146;DHT22;3104;50.348;7.620;2022-08-18T17:54:49;24.00;99.90
6146;DHT22;3104;50.348;7.620;2022-08-18T17:57:22;23.80;99.90
6146;DHT22;3104;50.348;7.620;2022-08-18T18:02:28;23.60;99.90
6146;DHT22;3104;50.348;7.620;2022-08-18T18:04:57;23.60;99.90
6146;DHT22;3104;50.348;7.620;2022-08-18T18:12:26;23.70;99.90
6146;DHT22;3104;50.348;7.620;2022-08-18T18:14:53;23.70;99.90
6146;DHT22;3104;50.348;7.620;2022-08-18T18:17:23;23.60;99.90
6146;DHT22;3104;50.348;7.620;2022-08-18T18:20:39;23.60;99.90
6146;DHT22;3104;50.348;7.620;2022-08-18T18:22:41;23.60;99.90
6146;DHT22;3104;50.348;7.620;2022-08-18T18:25:09;23.70;99.90
6146;DHT22;3104;50.348;7.620;2022-08-18T18:30:20;23.50;99.90
6146;DHT22;3104;50.348;7.620;2022-08-18T18:43:22;23.50;99.90
6146;DHT22;3104;50.348;7.620;2022-08-18T18:55:00;23.30;99.90
6146;DHT22;3104;50.348;7.620;2022-08-18T18:58:05;23.30;99.90
6146;DHT22;3104;50.348;7.620;2022-08-18T19:00:48;23.30;99.90
6146;DHT22;3104;50.348;7.620;2022-08-18T19:03:51;23.30;99.90
6146;DHT22;3104;50.348;7.620;2022-08-18T19:09:01;23.20;99.90
6146;DHT22;3104;50.348;7.620;2022-08-18T19:14:27;23.20;99.90
6146;DHT22;3104;50.348;7.620;2022-08-18T19:17:22;23.20;99.90
6146;DHT22;3104;50.348;7.620;2022-08-18T19:20:24;23.10;99.90
6146;DHT22;3104;50.348;7.620;2022-08-18T19:23:23;23.10;99.90
6146;DHT22;3104;50.348;7.620;2022-08-18T19:25:52;23.10;99.90
6146;DHT22;3104;50.348;7.620;2022-08-18T19:28:49;23.10;99.90
6146;DHT22;3104;50.348;7.620;2022-08-18T19:31:22;23.10;99.90
6146;DHT22;3104;50.348;7.620;2022-08-18T19:33:52;23.00;99.90
6146;DHT22;3104;50.348;7.620;2022-08-18T19:39:05;23.10;99.90
6146;DHT22;3104;50.348;7.620;2022-08-18T19:41:55;23.10;99.90
6146;DHT22;3104;50.348;7.620;2022-08-18T19:44:41;23.00;99.90
6146;DHT22;3104;50.348;7.620;2022-08-18T19:58:13;23.00;99.90
6146;DHT22;3104;50.348;7.620;2022-08-18T20:01:04;23.00;99.90
6146;DHT22;3104;50.348;7.620;2022-08-18T20:06:52;22.90;99.90
6146;DHT22;3104;50.348;7.620;2022-08-18T20:15:25;22.70;99.90
6146;DHT22;3104;50.348;7.620;2022-08-18T20:20:34;22.60;99.90